Wiarton, Ontario

5:09 PM EDT on August 23, 2014 (GMT -0400)
Wiarton | Change Station
CLOSE
Current Station
Airport
Location: Wiarton,
Elevation: 728 ft
Nearby Weather Stations

Elev 728 ft 44.75 °N, 81.11 °W | Updated 9 minutes ago

Partly Cloudy
Partly Cloudy
75 °F
Feels Like 75 °F
N
10
Wind Variable Wind from East

Tomorrow is forecast to be nearly the same temperature as today.

Today
High -- | Low -- °F
--% Chance of Precip.
Yesterday
High -- | Low -- °F
Precip. -- in
6:36 AM 8:17 PM
Waning Crescent, 3% visible
Pressure 30.11 in
Visibility 15.0 miles
Clouds Few 2000 ft
Few 9000 ft
Dew Point 66 °F
Humidity 73%
Rainfall 0.00 in
Snow Depth Not available.
UV 4 out of 12
Pollen Not available.
Air Quality Not available.
Flu Activity Not available.
METAR CYVV 232100Z 09009KT 15SM FEW020 FEW090 24/19 A3010 RMK CU1AC1 CU TR SLP194

More Conditions Fewer Conditions

Pressure 30.11 in
Visibility 15.0 miles
Clouds Few 2000 ft
Few 9000 ft
Dew Point 66 °F
Humidity 73%
Rainfall 0.00 in
Snow Depth Not available.
UV 4 out of 12
Pollen Not available.
Air Quality Not available.
Flu Activity Not available.
METAR CYVV 232100Z 09009KT 15SM FEW020 FEW090 24/19 A3010 RMK CU1AC1 CU TR SLP194

More Conditions Fewer Conditions

10-Day Weather Forecast

Almanac

Astronomy

Aug. 23, 2014 Rise Set
Actual Time 6:36 AM EDT 8:17 PM EDT
Civil Twilight 6:05 AM EDT 8:47 PM EDT
Nautical Twilight 5:27 AM EDT 9:25 PM EDT
Astronomical Twilight 4:46 AM EDT 10:05 PM EDT
Moon 4:49 AM EDT 7:01 PM EDT
Length of Visible Light 14h 42m
Length of Day
13h 40m
Tomorrow will be 2m 53s shorter.
Waning Crescent, 3% of the Moon is Illuminated
Today
Waning Crescent
Aug 25
New
Sep 2
First Quarter
Sep 8
Full
Sep 15
Last Quarter

Today's Extremes

Country Highs Country Lows

Community

WunderPhotos

Upload Photos

1,746,622 photos uploaded!

WunderBlogs® & News

By Dr. Jeff Masters
Director of Meteorology, Weather Underground
By Kari Strenfel
Meteorologist, Weather Underground
By Christopher C. Burt
Weather Historian, Weather Underground
August 23, 2014
August 23, 2014
August 23, 2014

Nearby

Snow Depth

Not available.

Earthquake Activity

City Distance Mag. Time & Date
No recent earthquake activity has been reported nearby.
Minimum magnitude displayed is 2.5.

Coastal Water Temperatures

Place Temperature
No Stations Reporting

Nearby Weather Stations